Time;durP1;ratioP1;P1;durP2;ratioP2;P2;SDS_P1;SDS_P2;PMS_P1;PMS_P2;Temp;Humidity;BMP_temperature;BMP_pressure;BME280_temperature;BME280_humidity;BME280_pressure;Samples;Min_cycle;Max_cycle;Signal;HPM_P1;HPM_P2
2021/09/13 00:00:39;;;;;;;0.15;0.15;;;;;;;19.43;56.83;100775.03;5077136;28;20024;-67
2021/09/13 00:03:04;;;;;;;0.40;0.25;;;;;;;19.40;57.19;100778.13;5078403;28;20511;-68
2021/09/13 00:05:30;;;;;;;0.40;0.40;;;;;;;19.41;57.38;100778.97;5075806;28;20086;-68
2021/09/13 00:07:55;;;;;;;0.13;0.10;;;;;;;19.42;58.13;100784.25;5075513;28;20028;-67
2021/09/13 00:10:21;;;;;;;0.55;0.30;;;;;;;19.41;57.26;100798.91;5075040;28;20032;-67
2021/09/13 00:12:46;;;;;;;0.60;0.10;;;;;;;19.37;58.27;100802.19;5064414;28;20024;-67
2021/09/13 00:15:11;;;;;;;0.73;0.20;;;;;;;19.38;57.25;100807.44;5053802;28;20021;-68
2021/09/13 00:17:37;;;;;;;1.15;0.30;;;;;;;19.38;57.06;100815.63;5055529;28;20025;-67
2021/09/13 00:20:03;;;;;;;0.43;0.30;;;;;;;19.38;57.95;100818.34;5056488;28;20021;-67
2021/09/13 00:22:28;;;;;;;0.20;0.20;;;;;;;19.36;57.79;100817.69;5055332;28;20028;-69
2021/09/13 00:24:53;;;;;;;0.30;0.20;;;;;;;19.33;58.32;100815.31;5052833;28;20139;-67
2021/09/13 00:27:19;;;;;;;0.82;0.40;;;;;;;19.36;57.56;100823.16;5055195;28;20041;-68
2021/09/13 00:29:44;;;;;;;0.10;0.10;;;;;;;19.34;57.71;100833.38;5055150;28;20048;-67
2021/09/13 00:32:09;;;;;;;0.55;0.28;;;;;;;19.33;57.82;100834.41;5054764;28;20364;-68
2021/09/13 00:34:35;;;;;;;0.20;0.10;;;;;;;19.34;57.19;100844.28;5055104;28;20032;-67
2021/09/13 00:37:02;;;;;;;0.52;0.17;;;;;;;19.36;56.85;100844.94;5055142;28;20480;-67
2021/09/13 00:39:27;;;;;;;0.50;0.20;;;;;;;19.36;56.66;100844.94;5055011;28;20107;-67
2021/09/13 00:41:53;;;;;;;1.45;0.28;;;;;;;19.32;57.39;100850.94;5054846;28;20132;-67
2021/09/13 00:44:18;;;;;;;1.55;0.55;;;;;;;19.33;57.92;100860.81;5055078;28;20102;-68
2021/09/13 00:46:43;;;;;;;0.20;0.13;;;;;;;19.31;57.52;100854.66;5054980;28;20063;-67
2021/09/13 00:49:09;;;;;;;0.20;0.13;;;;;;;19.33;57.09;100860.81;5054827;28;20040;-67
2021/09/13 00:51:34;;;;;;;0.75;0.30;;;;;;;19.29;58.75;100863.03;5055461;28;20464;-67
2021/09/13 00:54:00;;;;;;;0.15;0.00;;;;;;;19.30;57.22;100862.00;5054389;28;20025;-68
2021/09/13 00:56:25;;;;;;;0.75;0.30;;;;;;;19.30;57.58;100867.44;5054893;28;20025;-67
2021/09/13 00:58:52;;;;;;;0.00;0.00;;;;;;;19.26;57.36;100873.44;5054601;28;20079;-67
2021/09/13 01:01:18;;;;;;;1.40;0.10;;;;;;;19.30;57.34;100872.91;5055945;28;20029;-67
2021/09/13 01:03:43;;;;;;;0.45;0.22;;;;;;;19.24;57.65;100874.47;5037559;28;20028;-68
2021/09/13 01:06:09;;;;;;;0.45;0.20;;;;;;;19.24;57.75;100879.91;5054393;28;20036;-67
2021/09/13 01:08:34;;;;;;;0.20;0.20;;;;;;;19.26;57.10;100881.63;5054495;28;20380;-67
2021/09/13 01:11:00;;;;;;;0.50;0.15;;;;;;;19.27;57.61;100881.44;5054093;28;20092;-67
2021/09/13 01:13:26;;;;;;;0.15;0.15;;;;;;;19.23;57.25;100888.28;5054282;28;20035;-68
2021/09/13 01:15:52;;;;;;;1.02;0.40;;;;;;;19.22;57.36;100889.31;5054216;28;20021;-67
2021/09/13 01:18:17;;;;;;;1.15;0.30;;;;;;;19.21;57.53;100902.06;5054349;28;20104;-68
2021/09/13 01:20:44;;;;;;;0.82;0.10;;;;;;;19.21;57.69;100901.22;5054374;28;20044;-67
2021/09/13 01:23:36;;;;;;;0.20;0.20;;;;;;;19.23;57.03;100888.28;5056417;28;20041;-68
2021/09/13 01:26:03;;;;;;;0.52;0.30;;;;;;;19.19;58.51;100892.38;5050956;28;20492;-68
2021/09/13 01:28:28;;;;;;;0.30;0.17;;;;;;;19.25;57.08;100883.50;5053901;28;20115;-68
2021/09/13 01:30:54;;;;;;;0.55;0.20;;;;;;;19.25;57.42;100910.75;5053735;28;20108;-67
2021/09/13 01:33:21;;;;;;;0.10;0.10;;;;;;;19.20;56.78;100897.66;5054527;28;20039;-65
2021/09/13 01:35:48;;;;;;;0.57;0.35;;;;;;;19.20;57.32;100907.72;5035805;28;20040;-68
2021/09/13 01:38:16;;;;;;;0.45;0.20;;;;;;;19.17;57.51;100902.63;5056409;28;20480;-67
2021/09/13 01:40:41;;;;;;;0.30;0.20;;;;;;;19.13;57.42;100903.97;5057513;28;20016;-68
2021/09/13 01:43:07;;;;;;;0.65;0.20;;;;;;;19.14;56.79;100905.66;5073594;28;20111;-67
2021/09/13 01:45:32;;;;;;;0.45;0.20;;;;;;;19.15;57.35;100924.59;5073367;28;20028;-68
2021/09/13 01:47:57;;;;;;;0.47;0.30;;;;;;;19.12;57.20;100924.91;5073457;28;20052;-67
2021/09/13 01:50:23;;;;;;;0.60;0.20;;;;;;;19.18;56.70;100923.38;5073472;28;20081;-67
2021/09/13 01:52:48;;;;;;;1.13;0.22;;;;;;;19.13;58.18;100926.63;5073509;28;20024;-67
2021/09/13 01:55:14;;;;;;;0.70;0.30;;;;;;;19.14;57.76;100924.75;5073563;28;20463;-68
2021/09/13 01:57:39;;;;;;;0.70;0.38;;;;;;;19.10;57.34;100923.41;5073178;28;20044;-67
2021/09/13 02:00:06;;;;;;;0.73;0.20;;;;;;;19.12;56.26;100924.91;5072989;28;20055;-67
2021/09/13 02:02:31;;;;;;;1.65;0.30;;;;;;;19.12;57.09;100929.53;5073237;28;20035;-68
2021/09/13 02:04:58;;;;;;;0.40;0.20;;;;;;;19.11;56.90;100927.81;5070557;28;20131;-68
2021/09/13 02:07:23;;;;;;;0.55;0.15;;;;;;;19.11;56.64;100938.72;5055060;28;20075;-67
2021/09/13 02:09:52;;;;;;;1.10;0.30;;;;;;;19.10;57.40;100945.19;5037294;28;20028;-67
2021/09/13 02:12:18;;;;;;;0.55;0.20;;;;;;;19.09;56.99;100943.50;5052853;28;20407;-68
2021/09/13 02:14:43;;;;;;;0.52;0.20;;;;;;;19.09;56.55;100948.94;5053201;28;20025;-67
2021/09/13 02:17:09;;;;;;;0.93;0.17;;;;;;;19.10;56.97;100953.38;5052985;28;20021;-68
2021/09/13 02:19:34;;;;;;;0.25;0.20;;;;;;;19.08;56.62;100955.41;5053113;28;20466;-67
2021/09/13 02:22:00;;;;;;;0.20;0.10;;;;;;;19.07;57.44;100961.91;5052908;28;20047;-67
2021/09/13 02:24:25;;;;;;;0.68;0.08;;;;;;;19.04;56.43;100971.28;5052807;28;20078;-67
2021/09/13 02:26:50;;;;;;;0.50;0.30;;;;;;;19.05;56.94;100970.25;5052769;28;20037;-67
2021/09/13 02:29:16;;;;;;;0.65;0.10;;;;;;;19.08;56.48;100977.22;5052635;28;20055;-67
2021/09/13 02:31:41;;;;;;;0.70;0.20;;;;;;;19.04;56.68;100975.88;5052867;28;20021;-67
2021/09/13 02:34:06;;;;;;;0.55;0.40;;;;;;;19.05;56.52;100977.56;5052874;28;20032;-67
2021/09/13 02:36:32;;;;;;;0.22;0.20;;;;;;;19.05;56.62;100977.56;5052933;28;20518;-67
2021/09/13 02:38:57;;;;;;;0.65;0.40;;;;;;;19.03;57.43;100982.34;5052372;28;20025;-67
2021/09/13 02:41:22;;;;;;;0.45;0.10;;;;;;;19.03;57.47;100990.53;5052080;28;20020;-68
2021/09/13 02:43:47;;;;;;;0.28;0.28;;;;;;;19.06;57.02;100984.72;5054076;28;20033;-67
2021/09/13 02:46:15;;;;;;;0.32;0.10;;;;;;;19.06;56.87;100995.63;5053095;28;20048;-68
2021/09/13 02:48:40;;;;;;;0.20;0.10;;;;;;;19.04;56.69;101003.97;5052717;28;20025;-67
2021/09/13 02:51:05;;;;;;;0.10;0.10;;;;;;;19.04;57.20;101006.69;5052465;28;20044;-68
2021/09/13 02:53:34;;;;;;;3.20;0.40;;;;;;;18.99;56.95;100949.16;5053033;28;20082;-67
2021/09/13 02:55:59;;;;;;;0.45;0.25;;;;;;;18.96;56.72;100946.75;5052613;28;20095;-67
2021/09/13 02:58:24;;;;;;;0.70;0.40;;;;;;;18.99;58.45;100940.97;5052847;28;20151;-68
2021/09/13 03:00:50;;;;;;;0.38;0.20;;;;;;;19.03;56.09;101050.47;5052180;28;20472;-67
2021/09/13 03:03:15;;;;;;;0.30;0.30;;;;;;;18.99;56.47;101032.75;5054272;28;20021;-67
2021/09/13 03:05:40;;;;;;;1.30;0.22;;;;;;;19.00;57.17;101039.91;5052862;28;20036;-67
2021/09/13 03:08:06;;;;;;;0.85;0.25;;;;;;;18.97;56.26;101045.69;5052326;28;20025;-68
2021/09/13 03:10:31;;;;;;;1.77;0.50;;;;;;;18.98;56.42;101052.81;5052936;28;20036;-67
2021/09/13 03:12:57;;;;;;;0.63;0.47;;;;;;;18.97;56.63;101067.47;5052356;28;20442;-67
2021/09/13 03:15:22;;;;;;;0.32;0.32;;;;;;;18.96;56.30;101061.19;5052378;28;20021;-67
2021/09/13 03:17:48;;;;;;;0.47;0.25;;;;;;;18.98;57.53;101061.00;5052718;28;20025;-67
2021/09/13 03:20:13;;;;;;;0.40;0.20;;;;;;;18.93;56.64;101056.91;5054337;28;20025;-67
2021/09/13 03:22:39;;;;;;;1.48;0.50;;;;;;;18.94;56.61;101053.16;5052584;28;20029;-67
2021/09/13 03:25:05;;;;;;;0.47;0.20;;;;;;;18.96;56.41;101022.19;5052300;28;20068;-67
2021/09/13 03:27:32;;;;;;;0.20;0.20;;;;;;;18.94;56.65;101023.22;5052564;28;20407;-67
2021/09/13 03:29:57;;;;;;;0.10;0.10;;;;;;;18.94;56.32;101022.34;5052292;28;20052;-67
2021/09/13 03:32:22;;;;;;;0.50;0.13;;;;;;;18.94;56.06;101009.59;5052497;28;20107;-68
2021/09/13 03:34:48;;;;;;;0.47;0.20;;;;;;;18.92;55.96;101017.06;5053779;28;20032;-67
2021/09/13 03:37:13;;;;;;;1.55;0.20;;;;;;;18.92;55.59;101019.81;5052387;28;20036;-67
2021/09/13 03:39:39;;;;;;;0.30;0.13;;;;;;;18.92;57.22;101010.78;5052400;28;20028;-67
2021/09/13 03:42:05;;;;;;;0.77;0.20;;;;;;;18.90;56.39;101010.97;5068419;28;20099;-67
2021/09/13 03:44:30;;;;;;;0.45;0.10;;;;;;;18.92;55.94;101006.19;5072306;28;20029;-68
2021/09/13 03:46:56;;;;;;;0.30;0.25;;;;;;;18.90;56.59;101018.28;5071794;28;20025;-67
2021/09/13 03:49:21;;;;;;;1.30;0.10;;;;;;;18.91;56.11;101022.69;5074924;28;20028;-67
2021/09/13 03:51:47;;;;;;;0.55;0.15;;;;;;;18.87;56.23;101019.47;5075999;28;20024;-68
2021/09/13 03:54:12;;;;;;;1.08;0.20;;;;;;;18.87;55.30;101016.75;5075856;28;20052;-67
2021/09/13 03:56:38;;;;;;;0.57;0.30;;;;;;;18.87;56.65;101019.47;5075859;28;20111;-67
2021/09/13 03:59:03;;;;;;;0.30;0.20;;;;;;;18.91;56.25;101029.00;5075738;28;20024;-68
2021/09/13 04:01:28;;;;;;;0.88;0.30;;;;;;;19.01;55.71;101063.41;5075701;28;20028;-67
2021/09/13 04:03:57;;;;;;;0.85;0.10;;;;;;;19.57;54.53;101028.94;5075673;28;20081;-67
2021/09/13 04:06:38;;;;;;;0.35;0.15;;;;;;;19.80;55.31;101038.06;5075961;28;20048;-67
2021/09/13 04:11:57;;;;;;;0.93;0.20;;;;;;;20.08;55.22;101069.34;5075740;28;20024;-68
2021/09/13 04:14:24;;;;;;;1.92;0.15;;;;;;;20.19;53.68;101080.91;5075640;28;20017;-68
2021/09/13 04:16:51;;;;;;;1.08;0.20;;;;;;;20.31;53.87;101087.66;5075391;28;20111;-67
2021/09/13 04:19:16;;;;;;;0.20;0.10;;;;;;;20.41;53.74;101055.56;5076622;28;20036;-67
2021/09/13 04:21:42;;;;;;;0.20;0.10;;;;;;;20.47;53.40;101076.66;5057563;28;20480;-67
2021/09/13 04:24:08;;;;;;;0.20;0.10;;;;;;;20.55;53.79;101097.63;5074710;28;20048;-68
2021/09/13 04:26:33;;;;;;;0.00;0.00;;;;;;;20.53;54.81;101122.41;5075218;28;20028;-67
2021/09/13 04:28:59;;;;;;;0.20;0.10;;;;;;;20.56;54.56;101127.50;5075139;28;20115;-67
2021/09/13 04:31:24;;;;;;;0.43;0.25;;;;;;;20.56;53.07;101132.97;5074920;28;20044;-67
2021/09/13 04:33:51;;;;;;;0.40;0.28;;;;;;;20.59;53.26;101132.59;5075494;28;20024;-65
2021/09/13 04:36:17;;;;;;;1.27;0.20;;;;;;;20.68;54.24;101137.00;5075576;28;20032;-67
2021/09/13 04:38:43;;;;;;;0.57;0.30;;;;;;;20.67;54.04;101118.91;5075138;28;20353;-67
2021/09/13 04:41:08;;;;;;;0.45;0.10;;;;;;;20.73;53.96;101139.19;5066587;28;20018;-67
2021/09/13 04:43:34;;;;;;;0.57;0.10;;;;;;;20.76;54.15;101135.25;5055020;28;20452;-67
2021/09/13 04:45:59;;;;;;;0.03;0.03;;;;;;;20.77;53.33;101135.06;5054885;28;20052;-67
2021/09/13 04:48:24;;;;;;;0.75;0.20;;;;;;;20.83;55.23;101136.25;5054607;28;20032;-66
2021/09/13 04:50:52;;;;;;;0.95;0.22;;;;;;;20.72;55.00;101130.13;5056293;28;20528;-68
2021/09/13 04:53:18;;;;;;;0.13;0.10;;;;;;;20.84;53.79;101140.66;5054809;28;20055;-67
2021/09/13 04:55:43;;;;;;;0.10;0.05;;;;;;;20.88;53.96;101142.00;5054884;28;20387;-68
2021/09/13 04:58:09;;;;;;;0.05;0.05;;;;;;;20.88;53.50;101142.84;5054515;28;20035;-67
2021/09/13 05:00:34;;;;;;;0.50;0.17;;;;;;;20.86;55.43;101130.41;5054016;28;20531;-68
2021/09/13 05:02:59;;;;;;;0.10;0.10;;;;;;;20.91;55.99;101131.56;5054339;28;20025;-68
2021/09/13 05:05:25;;;;;;;0.40;0.10;;;;;;;20.98;54.19;101134.41;5054572;28;20027;-68
2021/09/13 05:07:50;;;;;;;0.70;0.20;;;;;;;20.94;53.47;101113.94;5055791;28;20029;-68
2021/09/13 05:10:15;;;;;;;0.20;0.20;;;;;;;21.00;55.02;101126.91;5054274;28;20123;-67
2021/09/13 05:12:41;;;;;;;0.70;0.20;;;;;;;20.95;54.68;101121.94;5054369;28;20023;-69
2021/09/13 05:15:08;;;;;;;0.15;0.13;;;;;;;20.98;54.76;101123.47;5054256;28;20708;-67
2021/09/13 05:17:33;;;;;;;0.70;0.20;;;;;;;20.98;54.25;101126.19;5054331;28;20071;-67
2021/09/13 05:19:58;;;;;;;0.20;0.10;;;;;;;20.99;55.01;101125.16;5054095;28;20029;-67
2021/09/13 05:22:24;;;;;;;0.50;0.20;;;;;;;20.94;54.69;101136.66;5055585;28;20028;-67
2021/09/13 05:24:49;;;;;;;0.40;0.20;;;;;;;21.00;54.51;101146.88;5053515;28;20136;-66
2021/09/13 05:27:14;;;;;;;0.95;0.20;;;;;;;21.02;54.85;101149.44;5053622;28;20047;-68
2021/09/13 05:29:40;;;;;;;0.55;0.20;;;;;;;21.05;53.99;101143.59;5053801;28;20066;-68
2021/09/13 05:32:06;;;;;;;0.30;0.13;;;;;;;20.99;58.84;101149.75;5054001;28;20139;-67
2021/09/13 05:34:32;;;;;;;0.35;0.20;;;;;;;21.01;54.67;101147.72;5053818;28;20103;-68
2021/09/13 05:36:57;;;;;;;0.30;0.20;;;;;;;21.04;55.10;101161.03;5054026;28;20490;-68
2021/09/13 05:39:23;;;;;;;0.20;0.15;;;;;;;21.06;54.75;101161.69;5053926;28;20017;-68
2021/09/13 05:41:48;;;;;;;1.70;0.77;;;;;;;21.06;55.31;101167.16;5068033;28;20521;-68
2021/09/13 05:44:14;;;;;;;0.75;0.10;;;;;;;20.98;55.08;101159.84;5068103;28;20052;-68
2021/09/13 05:46:40;;;;;;;1.40;0.20;;;;;;;21.04;55.20;101169.22;5053713;28;20021;-67
2021/09/13 05:49:09;;;;;;;0.95;0.30;;;;;;;21.12;54.28;101171.88;5053410;28;20021;-68
2021/09/13 05:51:37;;;;;;;0.43;0.10;;;;;;;21.13;54.83;101170.00;5053864;28;20056;-68
2021/09/13 05:54:03;;;;;;;1.70;0.20;;;;;;;21.11;56.42;101172.91;5053636;28;20017;-68
2021/09/13 05:56:28;;;;;;;0.65;0.20;;;;;;;21.11;54.83;101183.84;5054834;28;20033;-68
2021/09/13 05:58:53;;;;;;;0.40;0.20;;;;;;;21.09;55.65;101185.06;5052592;28;20029;-68
2021/09/13 06:01:19;;;;;;;0.22;0.13;;;;;;;21.10;55.58;101182.16;5053857;28;20029;-67
2021/09/13 06:03:44;;;;;;;0.20;0.10;;;;;;;21.18;55.94;101187.59;5053153;28;20039;-67
2021/09/13 06:06:10;;;;;;;0.50;0.30;;;;;;;21.15;55.67;101187.91;5052557;28;20056;-67
2021/09/13 06:08:35;;;;;;;0.20;0.10;;;;;;;21.15;56.34;101187.06;5052937;28;20452;-67
2021/09/13 06:11:01;;;;;;;1.27;0.30;;;;;;;21.20;56.79;101188.25;5050937;28;20093;-67
2021/09/13 06:13:26;;;;;;;0.50;0.20;;;;;;;21.18;56.55;101187.59;5053082;28;20040;-68
2021/09/13 06:15:52;;;;;;;0.25;0.10;;;;;;;21.17;56.41;101199.56;5067838;28;20111;-68
2021/09/13 06:18:17;;;;;;;0.40;0.38;;;;;;;21.23;57.51;101206.16;5064282;28;20514;-68
2021/09/13 06:20:42;;;;;;;0.82;0.20;;;;;;;21.17;55.22;101207.75;5064713;28;20037;-68
2021/09/13 06:23:07;;;;;;;0.20;0.20;;;;;;;21.19;54.54;101205.69;5055195;28;20069;-68
2021/09/13 06:25:33;;;;;;;0.57;0.10;;;;;;;21.23;56.93;101223.44;5064201;28;20033;-68
2021/09/13 06:27:58;;;;;;;0.93;0.43;;;;;;;21.18;56.84;101230.47;5063807;28;20512;-66
2021/09/13 06:30:23;;;;;;;1.65;0.35;;;;;;;21.18;57.96;101231.34;5057690;28;20058;-70
2021/09/13 06:32:49;;;;;;;0.77;0.20;;;;;;;21.22;55.25;101224.47;5053066;28;20021;-68
2021/09/13 06:35:14;;;;;;;0.10;0.10;;;;;;;21.27;57.35;101224.78;5052810;28;20031;-69
2021/09/13 06:37:39;;;;;;;0.43;0.20;;;;;;;21.24;58.15;101249.78;5052934;28;20395;-68
2021/09/13 06:40:06;;;;;;;0.22;0.20;;;;;;;21.25;58.39;101243.25;5049105;28;20056;-68
2021/09/13 06:42:31;;;;;;;0.50;0.10;;;;;;;21.20;57.41;101248.41;5048957;28;20029;-68
2021/09/13 06:44:57;;;;;;;0.68;0.20;;;;;;;21.25;56.91;101254.22;5050524;28;20027;-68
2021/09/13 06:47:43;;;;;;;1.38;0.30;;;;;;;21.23;56.93;101256.25;5060092;28;20025;-68
2021/09/13 06:50:09;;;;;;;0.30;0.10;;;;;;;21.26;56.70;101264.09;5054717;28;20032;-71
2021/09/13 06:52:35;;;;;;;1.92;0.20;;;;;;;21.32;56.68;101260.63;5050866;28;20029;-69
2021/09/13 06:55:00;;;;;;;0.60;0.10;;;;;;;21.30;56.03;101268.19;5056538;28;20020;-69
2021/09/13 06:57:25;;;;;;;0.57;0.20;;;;;;;21.32;58.59;101268.84;5051822;28;20569;-69
2021/09/13 06:59:51;;;;;;;0.00;0.00;;;;;;;21.29;57.45;101269.22;5050188;28;20517;-69
2021/09/13 07:02:17;;;;;;;2.17;0.30;;;;;;;21.32;57.59;101271.56;5051818;28;20100;-70
2021/09/13 07:04:58;;;;;;;0.93;0.20;;;;;;;21.35;57.96;101242.19;5053212;28;20025;-66
2021/09/13 07:07:23;;;;;;;0.10;0.10;;;;;;;21.34;56.03;101251.44;5052499;28;20029;-70
2021/09/13 07:09:49;;;;;;;0.73;0.00;;;;;;;21.34;60.49;101240.50;5051448;28;20136;-67
2021/09/13 07:12:16;;;;;;;0.50;0.20;;;;;;;21.28;58.53;101250.25;5053102;28;20025;-70
2021/09/13 07:14:41;;;;;;;0.68;0.10;;;;;;;21.35;57.42;101259.47;5050677;28;20039;-69
2021/09/13 07:17:08;;;;;;;0.17;0.03;;;;;;;21.45;56.61;101264.66;5053113;28;20036;-73
2021/09/13 07:19:33;;;;;;;0.77;0.25;;;;;;;21.44;56.70;101268.44;5023925;28;20415;-70
2021/09/13 07:21:58;;;;;;;0.52;0.10;;;;;;;21.45;56.24;101270.13;5051621;28;20071;-70
2021/09/13 07:24:24;;;;;;;0.17;0.15;;;;;;;21.38;56.46;101280.13;5062031;28;20136;-70
2021/09/13 07:26:49;;;;;;;1.27;0.28;;;;;;;21.31;57.55;101283.56;5055069;28;20046;-70
2021/09/13 07:29:16;;;;;;;0.38;0.13;;;;;;;21.19;57.16;101274.03;5043235;28;20353;-70
2021/09/13 07:31:41;;;;;;;0.60;0.10;;;;;;;21.07;55.27;101291.03;5056185;28;20472;-70
2021/09/13 07:34:07;;;;;;;0.63;0.10;;;;;;;20.97;55.08;101293.97;5057184;28;20025;-71
2021/09/13 07:36:32;;;;;;;1.23;0.03;;;;;;;20.96;55.22;101295.84;5056380;28;20104;-69
2021/09/13 07:38:58;;;;;;;0.47;0.13;;;;;;;20.93;54.61;101303.56;5055131;28;20021;-71
2021/09/13 07:41:24;;;;;;;0.40;0.20;;;;;;;20.92;54.65;101304.59;5042157;28;20025;-71
2021/09/13 07:43:51;;;;;;;0.30;0.10;;;;;;;20.85;54.54;101309.06;5056385;28;20063;-71
2021/09/13 07:46:16;;;;;;;0.82;0.22;;;;;;;20.85;55.53;101306.34;5058803;28;20051;-72
2021/09/13 07:48:43;;;;;;;0.80;0.10;;;;;;;20.82;55.70;101312.13;5069950;28;20017;-71
2021/09/13 07:51:09;;;;;;;0.15;0.10;;;;;;;20.86;54.04;101291.63;5056318;28;20380;-70
2021/09/13 07:53:34;;;;;;;0.40;0.10;;;;;;;20.82;55.32;101302.03;5056463;28;20025;-71
2021/09/13 07:56:00;;;;;;;0.45;0.10;;;;;;;20.85;55.34;101318.13;5057914;28;20071;-71
2021/09/13 07:58:25;;;;;;;0.40;0.10;;;;;;;20.83;53.76;101316.59;5056995;28;20487;-71
2021/09/13 08:00:50;;;;;;;0.40;0.10;;;;;;;20.84;53.74;101321.88;5078017;28;20460;-71
2021/09/13 08:03:16;;;;;;;1.30;0.10;;;;;;;20.82;54.50;101326.63;5058523;28;20106;-71
2021/09/13 08:05:41;;;;;;;0.32;0.13;;;;;;;20.81;54.01;101324.09;5056335;28;20033;-72
2021/09/13 08:08:06;;;;;;;0.30;0.20;;;;;;;20.80;54.24;101311.44;5058724;28;20472;-71
2021/09/13 08:10:32;;;;;;;0.50;0.25;;;;;;;20.79;53.85;101324.25;5044522;28;20024;-71
2021/09/13 08:12:57;;;;;;;0.63;0.47;;;;;;;20.78;54.32;101327.19;5055634;28;20468;-71
2021/09/13 08:15:23;;;;;;;0.30;0.20;;;;;;;20.78;54.73;101333.50;5063724;28;20032;-71
2021/09/13 08:17:49;;;;;;;1.27;0.10;;;;;;;20.77;54.22;101344.59;5059050;28;20060;-71
2021/09/13 08:20:16;;;;;;;0.22;0.10;;;;;;;20.78;54.82;101340.84;5060328;28;20063;-71
2021/09/13 08:22:42;;;;;;;0.52;0.10;;;;;;;20.82;53.86;101339.44;5055747;28;20361;-70
2021/09/13 08:25:08;;;;;;;0.28;0.10;;;;;;;20.80;54.86;101346.97;5055555;28;20660;-70
2021/09/13 08:27:34;;;;;;;1.02;0.20;;;;;;;20.77;54.08;101347.34;5055588;28;20484;-70
2021/09/13 08:29:59;;;;;;;0.88;0.20;;;;;;;20.81;54.45;101348.69;5055451;28;20017;-71
2021/09/13 08:32:25;;;;;;;0.22;0.13;;;;;;;20.80;54.82;101360.63;5055558;28;20479;-71
2021/09/13 08:34:51;;;;;;;0.40;0.00;;;;;;;20.78;57.67;101360.81;5054476;28;20403;-71
2021/09/13 08:37:18;;;;;;;0.38;0.10;;;;;;;20.79;53.74;101367.97;5054663;28;20107;-71
2021/09/13 08:39:44;;;;;;;0.80;0.25;;;;;;;20.82;55.25;101355.84;5074517;28;20028;-70
2021/09/13 08:42:11;;;;;;;0.45;0.13;;;;;;;20.78;56.20;101366.28;5070464;28;20418;-71
2021/09/13 08:44:38;;;;;;;0.70;0.10;;;;;;;20.73;55.38;101364.09;5037520;28;20029;-71
2021/09/13 08:47:12;;;;;;;0.10;0.10;;;;;;;20.78;55.08;101381.81;5053996;28;20526;-71
2021/09/13 08:49:40;;;;;;;1.77;0.28;;;;;;;20.73;55.04;101380.47;5035702;28;20373;-71
2021/09/13 08:52:06;;;;;;;0.98;0.00;;;;;;;20.78;55.97;101379.94;5054037;28;20025;-71
2021/09/13 08:54:35;;;;;;;0.20;0.10;;;;;;;20.74;54.43;101384.06;5040890;28;20017;-71
2021/09/13 08:57:02;;;;;;;0.63;0.22;;;;;;;20.80;56.45;101387.97;5057100;28;20028;-70
2021/09/13 08:59:29;;;;;;;0.98;0.10;;;;;;;20.76;54.72;101390.19;5054413;28;20025;-71
2021/09/13 09:01:55;;;;;;;0.68;0.20;;;;;;;20.78;54.16;101399.06;5055086;28;20035;-70
2021/09/13 09:04:21;;;;;;;0.45;0.30;;;;;;;20.76;54.50;101389.34;5054543;28;20456;-71
2021/09/13 09:06:48;;;;;;;0.63;0.10;;;;;;;20.73;59.08;101396.88;5054934;28;20063;-71
2021/09/13 09:09:17;;;;;;;0.98;0.38;;;;;;;20.77;55.66;101404.72;5054829;28;20034;-71
2021/09/13 09:11:54;;;;;;;0.40;0.10;;;;;;;20.77;54.43;101418.38;5054724;28;20496;-72
2021/09/13 09:14:41;;;;;;;0.00;0.00;;;;;;;20.81;55.41;101415.13;5042839;28;20395;-71
2021/09/13 09:17:21;;;;;;;0.55;0.13;;;;;;;20.77;53.49;101419.22;5066149;28;20028;-71
2021/09/13 09:19:47;;;;;;;0.20;0.10;;;;;;;20.75;53.71;101415.81;5054714;28;20121;-71
2021/09/13 09:22:29;;;;;;;0.20;0.10;;;;;;;20.72;54.71;101417.03;5054348;28;20109;-71
2021/09/13 09:24:56;;;;;;;0.63;0.20;;;;;;;20.75;55.45;101423.16;5036655;28;20056;-71
2021/09/13 09:27:25;;;;;;;0.43;0.30;;;;;;;20.76;54.11;101430.34;5037598;28;20021;-71
2021/09/13 09:29:52;;;;;;;1.30;0.43;;;;;;;20.77;54.84;101426.56;5036448;28;20031;-71
2021/09/13 09:32:22;;;;;;;0.45;0.10;;;;;;;20.77;55.21;101429.31;5054526;28;20083;-71
2021/09/13 09:34:49;;;;;;;2.03;0.55;;;;;;;20.76;54.50;101435.81;5054534;28;20100;-71
2021/09/13 09:37:16;;;;;;;0.60;0.10;;;;;;;20.78;54.73;101422.81;5036458;28;20029;-71
2021/09/13 09:39:49;;;;;;;0.95;0.25;;;;;;;20.75;55.01;101426.75;5036641;28;20460;-71
2021/09/13 09:42:29;;;;;;;0.70;0.10;;;;;;;20.72;54.10;101429.84;5055069;28;20028;-71
2021/09/13 09:44:56;;;;;;;0.20;0.20;;;;;;;20.70;54.67;101435.47;5053866;28;20036;-71
2021/09/13 09:47:22;;;;;;;0.20;0.20;;;;;;;20.71;55.20;101431.72;5053957;28;20071;-71
2021/09/13 09:49:53;;;;;;;1.02;0.10;;;;;;;20.75;55.07;101431.38;5054443;28;20372;-71
2021/09/13 09:52:29;;;;;;;0.30;0.10;;;;;;;20.71;54.46;101431.72;5054225;28;20048;-71
2021/09/13 09:55:11;;;;;;;0.57;0.10;;;;;;;20.69;54.60;101447.44;5054007;28;20048;-71
2021/09/13 09:57:40;;;;;;;0.80;0.10;;;;;;;20.69;54.39;101438.38;5036404;28;20029;-71
2021/09/13 10:00:27;;;;;;;0.10;0.00;;;;;;;20.75;54.14;101442.28;5055679;28;20067;-71
2021/09/13 10:02:52;;;;;;;0.57;0.10;;;;;;;20.73;54.36;101446.06;5053662;28;20032;-71
2021/09/13 10:05:27;;;;;;;0.30;0.10;;;;;;;20.74;54.57;101441.44;5035677;28;20025;-71
2021/09/13 10:07:54;;;;;;;0.30;0.10;;;;;;;20.71;54.18;101442.66;5053828;28;20091;-71
2021/09/13 10:10:24;;;;;;;0.40;0.20;;;;;;;20.75;55.06;101442.28;5053607;28;20021;-71
2021/09/13 10:12:51;;;;;;;0.40;0.10;;;;;;;20.76;56.63;101446.72;5053541;28;20087;-71
2021/09/13 10:15:17;;;;;;;0.20;0.10;;;;;;;20.76;56.26;101438.53;5035797;28;20025;-71
2021/09/13 10:17:43;;;;;;;0.25;0.08;;;;;;;20.72;54.48;101449.81;5055416;28;20089;-71
2021/09/13 10:20:10;;;;;;;0.32;0.10;;;;;;;20.71;54.64;101439.91;5055506;28;20020;-70
2021/09/13 10:22:38;;;;;;;0.10;0.05;;;;;;;20.76;53.70;101444.84;5053181;28;20067;-71
2021/09/13 10:25:05;;;;;;;0.60;0.20;;;;;;;20.74;54.26;101446.91;5042742;28;20207;-71
2021/09/13 10:27:35;;;;;;;0.50;0.10;;;;;;;20.73;54.32;101446.06;5062016;28;20033;-71
2021/09/13 10:30:13;;;;;;;0.17;0.17;;;;;;;20.73;55.11;101446.06;5033471;28;20707;-71
2021/09/13 10:32:42;;;;;;;0.10;0.10;;;;;;;20.73;54.71;101451.50;5015968;28;20057;-71
2021/09/13 10:35:10;;;;;;;0.38;0.10;;;;;;;20.77;56.97;101451.16;5034565;28;20052;-71
2021/09/13 10:37:42;;;;;;;0.43;0.10;;;;;;;20.75;54.48;101450.50;5033220;28;20104;-72
2021/09/13 10:40:08;;;;;;;0.15;0.10;;;;;;;20.72;55.62;101455.28;5033163;28;20033;-71
2021/09/13 10:42:36;;;;;;;0.55;0.10;;;;;;;20.73;54.88;101451.50;5016179;28;20076;-71
2021/09/13 10:45:12;;;;;;;1.52;0.22;;;;;;;20.76;55.72;101457.66;5053368;28;20394;-71
2021/09/13 10:47:40;;;;;;;0.77;0.10;;;;;;;20.75;55.16;101458.69;5053096;28;20024;-72
2021/09/13 10:50:26;;;;;;;0.20;0.13;;;;;;;20.72;54.83;101463.47;5036023;28;20649;-71
2021/09/13 10:52:57;;;;;;;0.38;0.10;;;;;;;20.76;54.78;101463.13;5035686;28;20033;-71
2021/09/13 10:55:42;;;;;;;0.80;0.10;;;;;;;20.77;54.44;101456.63;5053147;28;20040;-71
2021/09/13 10:58:16;;;;;;;0.10;0.08;;;;;;;20.69;55.64;101461.09;5053621;28;20037;-71
2021/09/13 11:00:44;;;;;;;;;;;;;;;20.73;54.55;101465.19;5057723;28;20024;-71
2021/09/13 11:03:34;;;;;;;0.47;0.30;;;;;;;20.73;55.01;101473.38;5057344;28;19959;-71
2021/09/13 11:06:11;;;;;;;0.20;0.08;;;;;;;20.72;55.87;101470.81;5059716;28;20046;-71
2021/09/13 11:08:39;;;;;;;0.45;0.20;;;;;;;20.69;55.48;101476.63;5057380;28;20027;-72
2021/09/13 11:11:13;;;;;;;0.40;0.20;;;;;;;20.69;54.44;101487.56;5038960;28;20029;-70
2021/09/13 11:13:39;;;;;;;0.30;0.10;;;;;;;20.73;54.61;101478.84;5056431;28;20021;-71
2021/09/13 11:16:05;;;;;;;0.65;0.10;;;;;;;20.70;56.29;101495.59;5039259;28;20025;-71
2021/09/13 11:18:32;;;;;;;1.15;0.10;;;;;;;20.69;55.19;101484.84;5054941;28;20078;-74
2021/09/13 11:21:20;;;;;;;0.10;0.10;;;;;;;20.88;55.08;101502.75;5054833;28;20535;-70
2021/09/13 11:23:53;;;;;;;0.93;0.20;;;;;;;20.88;56.82;101491.81;5051163;28;20037;-71
2021/09/13 11:26:59;;;;;;;0.20;0.10;;;;;;;20.87;53.68;101490.13;5054607;28;20036;-71